createdAt,value
2019-01-14T00:01:05.527Z,7.20
2019-01-14T00:03:46.647Z,7.20
2019-01-14T00:06:27.682Z,7.20
2019-01-14T00:09:08.612Z,7.20
2019-01-14T00:11:49.070Z,7.10
2019-01-14T00:14:29.810Z,7.10
2019-01-14T00:17:10.739Z,7.10
2019-01-14T00:19:51.502Z,7.10
2019-01-14T00:22:31.982Z,7.10
2019-01-14T00:25:12.337Z,7.10
2019-01-14T00:27:53.074Z,7.10
2019-01-14T00:30:34.175Z,7.00
2019-01-14T00:33:15.002Z,7.10
2019-01-14T00:35:55.907Z,7.00
2019-01-14T00:38:36.505Z,6.90
2019-01-14T00:41:17.105Z,6.90
2019-01-14T00:43:57.562Z,6.80
2019-01-14T00:46:38.694Z,6.80
2019-01-14T00:49:19.674Z,6.80
2019-01-14T00:52:00.276Z,6.70
2019-01-14T00:54:41.124Z,6.70
2019-01-14T00:57:22.026Z,6.80
2019-01-14T01:00:03.738Z,6.80
2019-01-14T01:02:44.645Z,6.70
2019-01-14T01:05:25.650Z,6.70
2019-01-14T01:08:06.549Z,6.60
2019-01-14T01:10:46.998Z,6.60
2019-01-14T01:13:27.475Z,6.50
2019-01-14T01:16:08.286Z,6.40
2019-01-14T01:18:48.887Z,6.40
2019-01-14T01:21:29.722Z,6.20
2019-01-14T01:24:10.509Z,6.30
2019-01-14T01:26:51.122Z,6.20
2019-01-14T01:29:31.979Z,6.10
2019-01-14T01:32:12.802Z,6.10
2019-01-14T01:34:53.430Z,6.10
2019-01-14T01:37:34.043Z,6.20
2019-01-14T01:40:14.882Z,6.00
2019-01-14T01:42:55.794Z,5.90
2019-01-14T01:45:36.974Z,6.00
2019-01-14T01:48:17.683Z,5.90
2019-01-14T01:50:58.073Z,5.90
2019-01-14T01:53:38.831Z,5.70
2019-01-14T01:56:19.766Z,5.70
2019-01-14T01:59:00.624Z,5.70
2019-01-14T02:01:41.369Z,5.80
2019-01-14T02:04:22.140Z,5.70
2019-01-14T02:07:02.665Z,5.70
2019-01-14T02:09:43.377Z,5.60
2019-01-14T02:12:23.725Z,5.70
2019-01-14T02:15:04.190Z,5.60
2019-01-14T02:17:44.910Z,5.70
2019-01-14T02:20:25.509Z,5.70
2019-01-14T02:23:06.342Z,5.70
2019-01-14T02:25:47.041Z,5.80
2019-01-14T02:28:27.834Z,5.70
2019-01-14T02:31:08.503Z,5.60
2019-01-14T02:33:49.285Z,5.50
2019-01-14T02:36:29.972Z,5.50
2019-01-14T02:39:10.683Z,5.50
2019-01-14T02:41:51.401Z,5.50
2019-01-14T02:44:32.598Z,5.50
2019-01-14T02:47:13.154Z,5.50
2019-01-14T02:49:54.150Z,5.50
2019-01-14T02:52:39.467Z,5.50
2019-01-14T02:55:17.526Z,5.50
2019-01-14T02:57:58.529Z,5.60
2019-01-14T03:00:39.433Z,5.50
2019-01-14T03:03:19.881Z,5.40
2019-01-14T03:06:00.989Z,5.40
2019-01-14T03:08:41.644Z,5.30
2019-01-14T03:11:22.305Z,5.40
2019-01-14T03:14:02.857Z,5.40
2019-01-14T03:16:43.629Z,5.40
2019-01-14T03:19:24.374Z,5.30
2019-01-14T03:22:05.057Z,5.30
2019-01-14T03:24:45.821Z,5.40
2019-01-14T03:27:26.793Z,5.30
2019-01-14T03:30:07.449Z,5.20
2019-01-14T03:32:48.118Z,5.20
2019-01-14T03:35:29.009Z,5.20
2019-01-14T03:38:09.670Z,5.20
2019-01-14T03:40:50.602Z,5.10
2019-01-14T03:43:30.222Z,5.10
2019-01-14T03:46:18.186Z,5.10
2019-01-14T03:49:06.510Z,5.00
2019-01-14T03:51:54.454Z,4.90
2019-01-14T03:54:42.429Z,4.90
2019-01-14T03:57:30.470Z,4.90
2019-01-14T04:00:11.546Z,4.90
2019-01-14T04:02:52.255Z,4.90
2019-01-14T04:05:33.299Z,4.90
2019-01-14T04:08:13.981Z,4.90
2019-01-14T04:10:55.255Z,4.80
2019-01-14T04:13:24.826Z,4.90
2019-01-14T04:16:12.778Z,4.80
2019-01-14T04:19:00.754Z,4.80
2019-01-14T04:21:48.706Z,4.90
2019-01-14T04:24:36.685Z,4.90
2019-01-14T04:27:24.635Z,4.90
2019-01-14T04:30:14.278Z,4.90
2019-01-14T04:33:02.249Z,4.80
2019-01-14T04:35:50.202Z,4.80
2019-01-14T04:41:33.027Z,4.70
2019-01-14T04:44:21.006Z,4.80
2019-01-14T04:47:08.975Z,4.70
2019-01-14T04:49:56.946Z,4.70
2019-01-14T04:52:44.921Z,4.70
2019-01-14T04:55:32.978Z,4.80
2019-01-14T04:58:20.949Z,4.70
2019-01-14T05:01:01.274Z,4.70
2019-01-14T05:03:42.136Z,4.70
2019-01-14T05:06:22.888Z,4.80
2019-01-14T05:09:05.263Z,4.80
2019-01-14T05:11:45.785Z,4.80
2019-01-14T05:14:26.239Z,4.80
2019-01-14T05:17:06.850Z,4.80
2019-01-14T05:19:47.540Z,4.80
2019-01-14T05:22:28.349Z,4.80
2019-01-14T05:25:08.776Z,4.80
2019-01-14T05:27:49.499Z,4.80
2019-01-14T05:30:30.282Z,4.80
2019-01-14T05:33:10.555Z,4.80
2019-01-14T05:35:50.924Z,4.80
2019-01-14T05:38:31.380Z,4.70
2019-01-14T05:41:11.902Z,4.70
2019-01-14T05:43:52.748Z,4.80
2019-01-14T05:46:33.417Z,4.70
2019-01-14T05:49:13.823Z,4.70
2019-01-14T05:51:54.374Z,4.70
2019-01-14T05:54:34.958Z,4.70
2019-01-14T05:57:15.667Z,4.70
2019-01-14T05:59:56.327Z,4.70
2019-01-14T06:02:37.171Z,4.70
2019-01-14T06:05:17.678Z,4.70
2019-01-14T06:07:58.296Z,4.80
2019-01-14T06:10:38.863Z,4.80
2019-01-14T06:13:19.498Z,4.90
2019-01-14T06:16:00.222Z,4.80
2019-01-14T06:18:40.854Z,4.80
2019-01-14T06:21:21.543Z,4.70
2019-01-14T06:24:02.093Z,4.70
2019-01-14T06:26:42.721Z,4.60
2019-01-14T06:29:23.443Z,4.70
2019-01-14T06:32:04.385Z,4.80
2019-01-14T06:34:45.329Z,4.80
2019-01-14T06:37:25.658Z,4.80
2019-01-14T06:40:06.390Z,4.80
2019-01-14T06:42:47.064Z,4.80
2019-01-14T06:45:28.017Z,4.80
2019-01-14T06:48:08.360Z,4.90
2019-01-14T06:50:48.980Z,4.90
2019-01-14T06:53:30.058Z,4.80
2019-01-14T06:56:11.042Z,4.90
2019-01-14T06:58:51.512Z,4.80
2019-01-14T07:01:32.219Z,4.80
2019-01-14T07:04:12.998Z,4.70
2019-01-14T07:06:53.602Z,4.70
2019-01-14T07:09:34.548Z,4.70
2019-01-14T07:12:14.866Z,4.70
2019-01-14T07:14:55.770Z,4.60
2019-01-14T07:17:36.314Z,4.60
2019-01-14T07:20:17.020Z,4.60
2019-01-14T07:22:58.014Z,4.60
2019-01-14T07:25:38.383Z,4.50
2019-01-14T07:28:19.089Z,4.60
2019-01-14T07:31:00.358Z,4.60
2019-01-14T07:33:40.713Z,4.60
2019-01-14T07:36:21.445Z,4.70
2019-01-14T07:39:02.194Z,4.70
2019-01-14T07:41:42.950Z,4.70
2019-01-14T07:44:23.791Z,4.70
2019-01-14T07:47:04.408Z,4.80
2019-01-14T07:49:45.069Z,4.70
2019-01-14T07:52:25.891Z,4.60
2019-01-14T07:55:06.520Z,4.50
2019-01-14T07:57:47.230Z,4.50
2019-01-14T08:00:27.684Z,4.50
2019-01-14T08:03:08.492Z,4.50
2019-01-14T08:05:49.033Z,4.40
2019-01-14T08:08:29.454Z,4.40
2019-01-14T08:11:10.350Z,4.40
2019-01-14T08:13:50.823Z,4.20
2019-01-14T08:16:31.562Z,4.00
2019-01-14T08:19:12.279Z,3.60
2019-01-14T08:21:53.090Z,3.40
2019-01-14T08:24:33.742Z,3.40
2019-01-14T08:27:03.188Z,3.10
2019-01-14T08:29:51.555Z,3.00
2019-01-14T08:32:39.520Z,2.90
2019-01-14T08:35:27.474Z,2.90
2019-01-14T08:37:56.196Z,3.00
2019-01-14T08:40:44.153Z,2.90
2019-01-14T08:49:27.318Z,3.00
2019-01-14T08:52:15.562Z,2.90
2019-01-14T08:55:03.704Z,3.00
2019-01-14T08:57:54.656Z,3.10
2019-01-14T09:00:33.861Z,3.10
2019-01-14T09:03:14.561Z,3.20
2019-01-14T09:05:55.177Z,3.30
2019-01-14T09:08:35.965Z,3.30
2019-01-14T09:11:16.878Z,3.30
2019-01-14T09:13:57.519Z,3.40
2019-01-14T09:16:38.250Z,3.50
2019-01-14T09:19:18.750Z,3.50
2019-01-14T09:21:59.663Z,3.60
2019-01-14T09:24:40.337Z,3.60
2019-01-14T09:27:21.318Z,3.50
2019-01-14T09:30:01.938Z,3.60
2019-01-14T09:32:43.812Z,3.60
2019-01-14T09:35:24.694Z,3.70
2019-01-14T09:38:05.512Z,3.70
2019-01-14T09:40:45.959Z,3.70
2019-01-14T09:43:26.414Z,3.80
2019-01-14T09:46:08.649Z,3.80
2019-01-14T09:48:49.828Z,3.90
2019-01-14T09:51:30.510Z,4.00
2019-01-14T09:54:11.326Z,4.00
2019-01-14T09:56:51.925Z,4.00
2019-01-14T09:59:32.818Z,4.10
2019-01-14T10:02:13.509Z,4.00
2019-01-14T10:04:54.196Z,4.10
2019-01-14T10:07:34.670Z,4.10
2019-01-14T10:10:15.657Z,4.10
2019-01-14T10:12:56.876Z,4.00
2019-01-14T10:15:37.450Z,3.90
2019-01-14T10:18:17.937Z,4.00
2019-01-14T10:20:58.562Z,4.00
2019-01-14T10:23:39.026Z,4.10
2019-01-14T10:26:19.779Z,4.10
2019-01-14T10:29:00.797Z,4.10
2019-01-14T10:31:41.463Z,4.00
2019-01-14T10:34:22.230Z,4.10
2019-01-14T10:37:02.809Z,4.10
2019-01-14T10:39:43.389Z,4.10
2019-01-14T10:42:23.991Z,4.10
2019-01-14T10:45:05.037Z,4.10
2019-01-14T10:47:45.754Z,4.10
2019-01-14T10:50:26.189Z,4.10
2019-01-14T10:53:06.797Z,4.10
2019-01-14T10:55:47.580Z,4.10
2019-01-14T10:58:28.090Z,4.10
2019-01-14T11:01:08.880Z,4.00
2019-01-14T11:03:49.369Z,3.90
2019-01-14T11:06:30.319Z,3.90
2019-01-14T11:09:11.140Z,3.90
2019-01-14T11:11:51.354Z,4.00
2019-01-14T11:14:31.958Z,4.00
2019-01-14T11:17:12.333Z,4.10
2019-01-14T11:19:53.005Z,4.20
2019-01-14T11:22:33.667Z,4.10
2019-01-14T11:25:14.797Z,4.30
2019-01-14T11:27:55.243Z,4.20
2019-01-14T11:30:35.822Z,4.30
2019-01-14T11:33:16.466Z,4.30
2019-01-14T11:35:57.069Z,4.30
2019-01-14T11:38:37.762Z,4.40
2019-01-14T11:41:18.398Z,4.40
2019-01-14T11:43:59.528Z,4.50
2019-01-14T11:46:40.268Z,4.50
2019-01-14T11:49:21.378Z,4.50
2019-01-14T11:52:02.248Z,4.50
2019-01-14T11:54:42.965Z,4.50
2019-01-14T11:57:23.605Z,4.50
2019-01-14T12:00:04.559Z,4.50
2019-01-14T12:02:45.762Z,4.50
2019-01-14T12:05:26.692Z,4.50
2019-01-14T12:08:07.281Z,4.50
2019-01-14T12:10:47.962Z,4.50
2019-01-14T12:13:28.434Z,4.40
2019-01-14T12:16:09.491Z,4.40
2019-01-14T12:18:50.134Z,4.30
2019-01-14T12:21:30.713Z,4.30
2019-01-14T12:24:11.161Z,4.20
2019-01-14T12:26:51.886Z,4.10
2019-01-14T12:29:32.399Z,3.90
2019-01-14T12:32:12.752Z,3.60
2019-01-14T12:34:53.307Z,3.40
2019-01-14T12:37:33.729Z,3.30
2019-01-14T12:40:14.734Z,3.30
2019-01-14T12:42:55.455Z,3.40
2019-01-14T12:45:36.294Z,3.50
2019-01-14T12:48:16.737Z,3.60
2019-01-14T12:50:57.287Z,3.70
2019-01-14T12:53:37.840Z,3.70
2019-01-14T12:56:18.474Z,3.80
2019-01-14T12:58:59.329Z,3.60
2019-01-14T13:01:39.914Z,3.50
2019-01-14T13:04:20.919Z,3.50
2019-01-14T13:10:00.408Z,3.50
2019-01-14T13:12:40.958Z,3.50
2019-01-14T13:15:21.631Z,3.50
2019-01-14T13:18:05.389Z,3.60
2019-01-14T13:20:45.917Z,3.60
2019-01-14T13:23:26.676Z,3.70
2019-01-14T13:26:07.614Z,3.70
2019-01-14T13:28:48.138Z,3.80
2019-01-14T13:31:28.803Z,3.80
2019-01-14T13:34:09.482Z,3.90
2019-01-14T13:36:50.426Z,3.90
2019-01-14T13:39:34.018Z,3.90
2019-01-14T13:42:13.619Z,4.00
2019-01-14T13:44:54.238Z,4.00
2019-01-14T13:47:35.030Z,3.70
2019-01-14T13:50:15.609Z,3.30
2019-01-14T13:52:56.292Z,2.80
2019-01-14T13:55:37.021Z,2.30
2019-01-14T13:58:17.766Z,2.10
2019-01-14T14:00:58.490Z,2.10
2019-01-14T14:03:39.410Z,2.00
2019-01-14T14:06:20.340Z,1.90
2019-01-14T14:09:00.626Z,1.80
2019-01-14T14:11:41.735Z,1.90
2019-01-14T14:14:22.075Z,1.80
2019-01-14T14:17:02.790Z,1.70
2019-01-14T14:19:43.574Z,1.60
2019-01-14T14:22:24.110Z,1.60
2019-01-14T14:25:04.835Z,1.70
2019-01-14T14:27:45.529Z,1.90
2019-01-14T14:30:26.368Z,1.90
2019-01-14T14:33:07.046Z,2.00
2019-01-14T14:35:47.887Z,2.10
2019-01-14T14:38:28.624Z,2.30
2019-01-14T14:41:09.597Z,2.40
2019-01-14T14:43:50.358Z,2.50
2019-01-14T14:46:31.118Z,2.50
2019-01-14T14:49:11.827Z,2.60
2019-01-14T14:51:52.414Z,2.60
2019-01-14T14:54:33.058Z,2.70
2019-01-14T14:57:13.403Z,2.70
2019-01-14T14:59:53.976Z,2.80
2019-01-14T15:02:34.751Z,2.80
2019-01-14T15:05:15.461Z,2.80
2019-01-14T15:07:56.260Z,2.90
2019-01-14T15:10:37.082Z,3.00
2019-01-14T15:13:17.414Z,3.00
2019-01-14T15:15:58.139Z,3.00
2019-01-14T15:18:38.481Z,3.00
2019-01-14T15:21:19.209Z,3.00
2019-01-14T15:23:59.969Z,3.00
2019-01-14T15:26:40.434Z,3.00
2019-01-14T15:29:21.182Z,2.90
2019-01-14T15:32:01.706Z,3.00
2019-01-14T15:34:42.454Z,3.00
2019-01-14T15:37:23.250Z,3.10
2019-01-14T15:40:05.607Z,2.90
2019-01-14T15:42:46.523Z,2.80
2019-01-14T15:45:27.195Z,2.80
2019-01-14T15:48:07.793Z,2.80
2019-01-14T15:50:49.450Z,2.80
2019-01-14T15:53:30.447Z,2.70
2019-01-14T15:56:11.398Z,2.80
2019-01-14T15:58:52.426Z,2.90
2019-01-14T16:01:33.546Z,2.90
2019-01-14T16:04:14.395Z,2.80
2019-01-14T16:06:55.139Z,2.90
2019-01-14T16:09:36.001Z,2.80
2019-01-14T16:12:16.783Z,2.70
2019-01-14T16:14:57.571Z,2.80
2019-01-14T16:17:38.374Z,2.80
2019-01-14T16:20:19.017Z,2.70
2019-01-14T16:22:59.787Z,2.70
2019-01-14T16:25:40.119Z,2.60
2019-01-14T16:28:20.610Z,2.60
2019-01-14T16:31:01.143Z,2.70
2019-01-14T16:33:41.482Z,2.70
2019-01-14T16:36:22.080Z,2.70
2019-01-14T16:39:04.527Z,2.60
2019-01-14T16:41:45.602Z,2.60
2019-01-14T16:44:26.410Z,2.70
2019-01-14T16:47:07.182Z,2.70
2019-01-14T16:49:47.987Z,2.80
2019-01-14T16:52:28.862Z,2.70
2019-01-14T16:55:11.389Z,2.70
2019-01-14T16:57:52.535Z,2.80
2019-01-14T17:00:32.983Z,2.80
2019-01-14T17:03:13.815Z,2.80
2019-01-14T17:05:54.462Z,2.80
2019-01-14T17:08:35.126Z,2.80
2019-01-14T17:11:15.910Z,2.90
2019-01-14T17:13:56.889Z,2.90
2019-01-14T17:16:38.014Z,2.90
2019-01-14T17:19:18.827Z,2.80
2019-01-14T17:21:59.525Z,2.80
2019-01-14T17:24:40.418Z,2.80
2019-01-14T17:27:20.729Z,2.70
2019-01-14T17:30:01.492Z,2.70
2019-01-14T17:32:42.195Z,2.60
2019-01-14T17:35:23.007Z,2.60
2019-01-14T17:38:03.694Z,2.50
2019-01-14T17:40:44.531Z,2.50
2019-01-14T17:43:25.189Z,2.40
2019-01-14T17:49:05.455Z,2.50
2019-01-14T17:51:46.534Z,2.50
2019-01-14T17:54:27.146Z,2.50
2019-01-14T17:57:07.597Z,2.50
2019-01-14T17:59:48.544Z,2.50
2019-01-14T18:02:29.131Z,2.50
2019-01-14T18:05:09.418Z,2.40
2019-01-14T18:07:50.110Z,2.30
2019-01-14T18:10:31.137Z,2.30
2019-01-14T18:13:11.555Z,2.30
2019-01-14T18:15:52.137Z,2.40
2019-01-14T18:18:32.511Z,2.40
2019-01-14T18:21:13.735Z,2.40
2019-01-14T18:23:54.838Z,2.50
2019-01-14T18:26:35.417Z,2.50
2019-01-14T18:29:15.985Z,2.50
2019-01-14T18:31:57.064Z,2.50
2019-01-14T18:34:37.422Z,2.50
2019-01-14T18:37:17.970Z,2.60
2019-01-14T18:39:58.455Z,2.50
2019-01-14T18:42:39.066Z,2.60
2019-01-14T18:45:19.472Z,2.70
2019-01-14T18:48:00.075Z,2.70
2019-01-14T18:50:40.878Z,2.70
2019-01-14T18:53:21.390Z,2.70
2019-01-14T18:56:01.998Z,2.70
2019-01-14T18:58:42.393Z,2.70
2019-01-14T19:01:23.059Z,2.80
2019-01-14T19:04:03.741Z,2.80
2019-01-14T19:06:44.397Z,2.80
2019-01-14T19:09:24.814Z,2.70
2019-01-14T19:12:05.131Z,2.60
2019-01-14T19:14:45.465Z,2.70
2019-01-14T19:17:26.081Z,2.60
2019-01-14T19:20:06.627Z,2.60
2019-01-14T19:22:47.111Z,2.60
2019-01-14T19:25:27.922Z,2.70
2019-01-14T19:28:08.641Z,2.60
2019-01-14T19:30:49.063Z,2.60
2019-01-14T19:33:29.628Z,2.70
2019-01-14T19:36:10.130Z,2.70
2019-01-14T19:38:50.833Z,2.70
2019-01-14T19:41:31.513Z,2.70
2019-01-14T19:44:11.894Z,2.50
2019-01-14T19:46:52.647Z,2.60
2019-01-14T19:49:33.644Z,2.70
2019-01-14T19:52:15.173Z,2.80
2019-01-14T19:54:55.854Z,2.90
2019-01-14T19:57:36.734Z,2.80
2019-01-14T20:00:17.274Z,2.90
2019-01-14T20:02:58.679Z,3.00
2019-01-14T20:05:39.771Z,2.90
2019-01-14T20:08:21.951Z,2.90
2019-01-14T20:11:09.156Z,2.80
2019-01-14T20:13:45.542Z,2.80
2019-01-14T20:16:26.213Z,2.90
2019-01-14T20:19:06.556Z,3.00
2019-01-14T20:21:47.470Z,3.00
2019-01-14T20:24:28.098Z,3.10
2019-01-14T20:27:08.771Z,3.00
2019-01-14T20:29:49.401Z,3.00
2019-01-14T20:32:29.993Z,3.00
2019-01-14T20:35:10.745Z,3.10
2019-01-14T20:37:51.341Z,3.10
2019-01-14T20:40:32.238Z,2.90
2019-01-14T20:43:13.400Z,3.00
2019-01-14T20:45:54.494Z,3.00
2019-01-14T20:48:35.218Z,2.90
2019-01-14T20:51:16.022Z,2.70
2019-01-14T20:53:56.714Z,2.70
2019-01-14T20:56:37.545Z,2.70
2019-01-14T20:59:18.491Z,2.70
2019-01-14T21:01:59.091Z,2.70
2019-01-14T21:04:40.042Z,2.70
2019-01-14T21:07:20.338Z,2.60
2019-01-14T21:10:01.104Z,2.60
2019-01-14T21:12:41.737Z,2.70
2019-01-14T21:15:22.626Z,2.70
2019-01-14T21:18:03.404Z,2.70
2019-01-14T21:20:44.106Z,2.60
2019-01-14T21:23:24.880Z,2.70
2019-01-14T21:26:05.639Z,2.80
2019-01-14T21:28:46.322Z,2.70
2019-01-14T21:31:27.323Z,2.80
2019-01-14T21:34:08.362Z,2.70
2019-01-14T21:36:48.930Z,2.80
2019-01-14T21:39:29.398Z,2.80
2019-01-14T21:42:10.319Z,2.80
2019-01-14T21:44:51.486Z,2.90
2019-01-14T21:47:32.702Z,3.00
2019-01-14T21:50:14.370Z,3.00
2019-01-14T21:52:54.638Z,3.10
2019-01-14T21:55:35.419Z,3.00
2019-01-14T21:58:16.006Z,2.90
2019-01-14T22:00:56.594Z,3.00
2019-01-14T22:03:37.360Z,3.10
2019-01-14T22:06:17.967Z,3.00
2019-01-14T22:08:58.771Z,3.20
2019-01-14T22:11:39.645Z,3.20
2019-01-14T22:14:20.227Z,3.20
2019-01-14T22:17:01.124Z,3.20
2019-01-14T22:19:41.756Z,3.20
2019-01-14T22:22:22.366Z,3.30
2019-01-14T22:25:03.257Z,3.30
2019-01-14T22:27:43.993Z,3.40
2019-01-14T22:30:24.734Z,3.40
2019-01-14T22:33:05.681Z,3.40
2019-01-14T22:35:46.214Z,3.30
2019-01-14T22:38:26.913Z,3.30
2019-01-14T22:41:07.537Z,3.40
2019-01-14T22:43:48.641Z,3.40
2019-01-14T22:46:29.466Z,3.50
2019-01-14T22:49:10.237Z,3.40
2019-01-14T22:51:51.128Z,3.40
2019-01-14T22:54:31.762Z,3.30
2019-01-14T22:57:12.530Z,3.40
2019-01-14T22:59:53.210Z,3.50
2019-01-14T23:02:33.942Z,3.50
2019-01-14T23:05:14.739Z,3.40
2019-01-14T23:07:55.634Z,3.40
2019-01-14T23:10:35.956Z,3.40
2019-01-14T23:13:16.697Z,3.40
2019-01-14T23:15:58.226Z,3.50
2019-01-14T23:18:39.045Z,3.50
2019-01-14T23:21:19.492Z,3.50
2019-01-14T23:24:00.119Z,3.50
2019-01-14T23:26:40.519Z,3.50
2019-01-14T23:29:20.975Z,3.50
2019-01-14T23:32:01.929Z,3.50
2019-01-14T23:37:32.128Z,3.50
2019-01-14T23:40:12.650Z,3.50
2019-01-14T23:42:52.975Z,3.50
2019-01-14T23:45:33.649Z,3.50
2019-01-14T23:48:14.198Z,3.60
2019-01-14T23:50:54.782Z,3.60
2019-01-14T23:53:35.281Z,3.60
2019-01-14T23:56:15.878Z,3.70
2019-01-14T23:58:56.493Z,3.70
